This is the latest recevied weather packets stored in our database for station/object KE8GJZ-1. If no packets are shown the sender has not sent any weather packets the latest 10 day(s).
| Time | Temp. | Humidity | Pressure | Rain* | Wind** | Luminosity | Snow |
|---|---|---|---|---|---|---|---|
| 1777651745 | 9.44° C | 56% | 1011.6 hPa | 0 mm | - | 91 W/m² | - |
| 1777651442 | 9.44° C | 54% | 1011.6 hPa | 0 mm | - | 92 W/m² | - |
| 1777650836 | 10.56° C | 53% | 1011.7 hPa | 0 mm | - | 160 W/m² | - |
| 1777649927 | 11.67° C | 49% | 1011.5 hPa | 0 mm | - | 173 W/m² | - |
| 1777649625 | 10.56° C | 54% | 1011.6 hPa | 0 mm | - | 606 W/m² | - |
| 1777649320 | 10.56° C | 52% | 1011.8 hPa | 0 mm | - | 175 W/m² | - |
| 1777649018 | 11.11° C | 54% | 1011.4 hPa | 0 mm | - | 796 W/m² | - |
| 1777648716 | 11.67° C | 55% | 1011.5 hPa | 0 mm | - | 734 W/m² | - |
| 1777648411 | 11.67° C | 52% | 1011.6 hPa | 0 mm | - | 751 W/m² | - |
| 1777648108 | 10.56° C | 57% | 1011.6 hPa | 0 mm | - | 718 W/m² | - |
| 1777647804 | 9.44° C | 64% | 1011.6 hPa | 0 mm | - | 479 W/m² | - |
| 1777647500 | 8.89° C | 68% | 1011.5 hPa | 0 mm | - | 163 W/m² | - |
| 1777647198 | 9.44° C | 65% | 1011.6 hPa | 0 mm | - | 142 W/m² | - |
| 1777646590 | 8.89° C | 71% | 1011.5 hPa | 0 mm | - | 289 W/m² | - |
| 1777646287 | 8.89° C | 72% | 1011.5 hPa | 0 mm | - | 108 W/m² | - |
| 1777645984 | 8.89° C | 71% | 1011.5 hPa | 0 mm | - | 176 W/m² | - |
| 1777645680 | 8.89° C | 72% | 1011.6 hPa | 0 mm | - | 220 W/m² | - |
| 1777645376 | 8.89° C | 75% | 1011.7 hPa | 0 mm | - | 231 W/m² | - |
| 1777645072 | 7.78° C | 78% | 1011.9 hPa | 0 mm | - | 358 W/m² | - |
| 1777644769 | 7.22° C | 79% | 1011.7 hPa | 0 mm | - | 151 W/m² | - |
| 1777644467 | 7.22° C | 80% | 1011.8 hPa | 0 mm | - | 137 W/m² | - |
| 1777644163 | 7.22° C | 80% | 1011.7 hPa | 0 mm | - | 122 W/m² | - |
| 1777643859 | 7.22° C | 79% | 1011.7 hPa | 0 mm | - | 130 W/m² | - |
| 1777643557 | 7.22° C | 80% | 1011.7 hPa | 0 mm | - | 153 W/m² | - |
| 1777643253 | 7.22° C | 80% | 1011.6 hPa | 0 mm | - | 162 W/m² | - |
* Rain latest hour (hover to see other rain measurements)
** Current wind speed in m/s (hover to see current wind gust speed)